Time;durP1;ratioP1;P1;durP2;ratioP2;P2;SDS_P1;SDS_P2;PMS_P1;PMS_P2;Temp;Humidity;BMP_temperature;BMP_pressure;BME280_temperature;BME280_humidity;BME280_pressure;Samples;Min_cycle;Max_cycle;Signal;HPM_P1;HPM_P2
2021/08/02 00:01:31;;;;;;;11.75;9.28;;;;;;;17.29;79.71;99133.84;1657739;86;25954;-72
2021/08/02 00:04:05;;;;;;;11.78;9.03;;;;;;;17.28;79.71;99137.75;1685615;85;25731;-72
2021/08/02 00:06:51;;;;;;;11.38;9.25;;;;;;;17.25;79.69;99133.64;1683879;85;25736;-72
2021/08/02 00:09:35;;;;;;;10.40;9.30;;;;;;;17.25;79.89;99133.05;1676065;85;25753;-72
2021/08/02 00:12:12;;;;;;;15.83;9.38;;;;;;;17.23;80.12;99135.39;1676033;84;27391;-71
2021/08/02 00:14:44;;;;;;;12.98;10.25;;;;;;;17.21;80.29;99132.82;1648795;85;25850;-71
2021/08/02 00:17:11;;;;;;;13.05;10.20;;;;;;;17.20;80.31;99136.14;1705112;84;25704;-71
2021/08/02 00:19:38;;;;;;;15.08;9.98;;;;;;;17.20;80.56;99139.44;1670915;85;25777;-72
2021/08/02 00:22:04;;;;;;;12.23;9.65;;;;;;;17.17;80.37;99134.94;1675937;85;25752;-72
2021/08/02 00:24:32;;;;;;;15.35;10.28;;;;;;;17.16;80.52;99138.86;1676043;84;27960;-72
2021/08/02 00:26:59;;;;;;;12.23;9.83;;;;;;;17.15;80.73;99137.28;1675945;85;25785;-71
2021/08/02 00:29:26;;;;;;;10.60;9.33;;;;;;;17.14;80.77;99141.75;1676076;85;25663;-72
2021/08/02 00:31:54;;;;;;;14.15;10.08;;;;;;;17.13;80.79;99138.25;1675886;85;27869;-73
2021/08/02 00:34:20;;;;;;;12.13;9.80;;;;;;;17.15;80.95;99140.60;1675917;85;25746;-74
2021/08/02 00:36:55;;;;;;;10.20;9.13;;;;;;;17.14;81.06;99148.59;1648875;85;27495;-74
2021/08/02 00:39:45;;;;;;;11.95;8.98;;;;;;;17.12;81.04;99150.33;1678561;85;25662;-74
2021/08/02 00:43:06;;;;;;;11.00;9.00;;;;;;;17.12;81.15;99149.55;1676072;85;25665;-76
2021/08/02 00:45:35;;;;;;;11.85;8.35;;;;;;;17.09;81.20;99150.31;1676261;85;26439;-77
2021/08/02 00:48:11;;;;;;;10.98;8.88;;;;;;;17.05;81.27;99153.61;1676437;84;25751;-79
2021/08/02 00:50:46;;;;;;;10.08;8.10;;;;;;;17.03;81.45;99157.31;1676377;85;27401;-79
2021/08/02 00:53:20;;;;;;;11.08;8.23;;;;;;;16.99;81.49;99151.80;1676244;85;25766;-79
2021/08/02 00:55:51;;;;;;;8.33;6.85;;;;;;;16.96;81.63;99152.58;1678641;85;25705;-78
2021/08/02 00:58:22;;;;;;;9.30;7.28;;;;;;;16.91;81.40;99153.71;1678396;85;25681;-78
2021/08/02 01:00:51;;;;;;;10.93;7.85;;;;;;;16.86;81.52;99158.16;1676302;85;26273;-77
2021/08/02 01:03:18;;;;;;;8.95;7.40;;;;;;;16.83;81.56;99158.11;1676254;85;28735;-79
2021/08/02 01:05:49;;;;;;;11.50;7.45;;;;;;;16.80;81.71;99159.08;1676101;85;25657;-79
2021/08/02 01:08:32;;;;;;;9.75;7.53;;;;;;;16.79;81.90;99160.22;1681464;84;25658;-77
2021/08/02 01:11:06;;;;;;;8.05;7.25;;;;;;;16.74;82.01;99156.48;1707143;83;25759;-77
2021/08/02 01:13:35;;;;;;;10.40;6.75;;;;;;;16.72;81.90;99157.44;1708632;83;26305;-77
2021/08/02 01:16:05;;;;;;;14.43;7.35;;;;;;;16.68;82.08;99159.94;1708719;83;33269;-77
2021/08/02 01:18:34;;;;;;;8.43;7.53;;;;;;;16.64;82.17;99159.91;1708597;83;25738;-76
2021/08/02 01:21:11;;;;;;;13.18;7.33;;;;;;;16.63;82.35;99156.96;1708747;83;25835;-76
2021/08/02 01:23:39;;;;;;;8.18;7.30;;;;;;;16.61;82.44;99162.80;1708570;83;25776;-75
2021/08/02 01:26:33;;;;;;;9.65;6.83;;;;;;;16.60;82.42;99163.17;1708622;83;25733;-76
2021/08/02 01:29:55;;;;;;;8.55;7.30;;;;;;;16.58;82.46;99161.41;1702245;83;27479;-76
2021/08/02 01:32:22;;;;;;;8.55;6.80;;;;;;;16.53;82.45;99163.92;1708428;83;27246;-74
2021/08/02 01:34:48;;;;;;;8.78;6.80;;;;;;;16.49;82.64;99171.27;1708470;83;25776;-73
2021/08/02 01:37:15;;;;;;;10.15;6.72;;;;;;;16.48;82.78;99171.64;1690156;83;25820;-73
2021/08/02 01:39:54;;;;;;;7.85;6.65;;;;;;;16.47;82.88;99168.14;1709449;83;25794;-73
2021/08/02 01:42:20;;;;;;;12.78;7.40;;;;;;;16.47;83.04;99167.36;1708829;83;27363;-74
2021/08/02 01:44:47;;;;;;;10.23;7.47;;;;;;;16.43;83.05;99166.75;1708559;83;25669;-73
2021/08/02 01:47:30;;;;;;;8.18;7.33;;;;;;;16.41;83.19;99167.70;1708547;83;25742;-72
2021/08/02 01:50:23;;;;;;;8.90;8.00;;;;;;;16.40;83.27;99164.77;1708522;83;27805;-71
2021/08/02 01:53:17;;;;;;;12.18;7.47;;;;;;;16.41;83.49;99160.08;1708277;83;25709;-71
2021/08/02 01:55:49;;;;;;;10.05;6.97;;;;;;;16.39;83.49;99166.50;1708368;83;27510;-72
2021/08/02 01:58:16;;;;;;;12.47;7.55;;;;;;;16.38;83.63;99165.72;1704761;83;26404;-73
2021/08/02 02:00:47;;;;;;;10.23;7.78;;;;;;;16.37;83.74;99162.78;1708476;83;25696;-70
2021/08/02 02:03:24;;;;;;;9.50;7.40;;;;;;;16.36;83.85;99162.59;1690010;83;25798;-72
2021/08/02 02:05:56;;;;;;;7.47;6.70;;;;;;;16.36;83.99;99159.86;1708608;83;25702;-73
2021/08/02 02:08:32;;;;;;;8.45;7.15;;;;;;;16.37;84.04;99163.37;1690454;83;27343;-73
2021/08/02 02:11:01;;;;;;;9.75;7.47;;;;;;;16.35;84.14;99157.51;1652654;86;25791;-73
2021/08/02 02:13:35;;;;;;;9.35;7.75;;;;;;;16.34;84.25;99153.97;1662046;85;25691;-72
2021/08/02 02:16:03;;;;;;;9.00;7.72;;;;;;;16.32;84.19;99150.06;1683727;85;27834;-72
2021/08/02 02:18:34;;;;;;;8.95;7.60;;;;;;;16.31;84.34;99153.94;1652702;86;25763;-72
2021/08/02 02:21:04;;;;;;;8.88;7.97;;;;;;;16.31;84.43;99151.22;1652609;86;27976;-72
2021/08/02 02:23:30;;;;;;;;;;;;;;;16.29;84.53;99145.35;1655122;86;25840;-72
2021/08/02 02:25:57;;;;;;;13.10;8.13;;;;;;;16.30;84.71;99151.03;1652762;86;25679;-72
2021/08/02 02:28:24;;;;;;;9.28;7.65;;;;;;;16.27;84.65;99150.41;1652649;86;26162;-72
2021/08/02 02:30:53;;;;;;;11.35;7.90;;;;;;;16.26;84.72;99155.09;1652777;86;26390;-70
2021/08/02 02:33:21;;;;;;;10.90;8.48;;;;;;;16.25;84.76;99159.73;1683819;85;29790;-72
2021/08/02 02:35:49;;;;;;;9.83;8.48;;;;;;;16.27;85.01;99164.83;1652645;86;26431;-72
2021/08/02 02:38:19;;;;;;;9.38;8.48;;;;;;;16.28;85.12;99160.14;1652642;86;25717;-72
2021/08/02 02:40:47;;;;;;;10.08;8.65;;;;;;;16.27;85.06;99168.14;1683904;85;25673;-71
2021/08/02 02:43:15;;;;;;;10.60;9.50;;;;;;;16.22;85.07;99165.94;1652716;86;25811;-72
2021/08/02 02:45:45;;;;;;;10.00;8.85;;;;;;;16.24;85.14;99164.20;1652716;86;27408;-72
2021/08/02 02:48:15;;;;;;;14.63;8.90;;;;;;;16.25;85.34;99172.02;1652783;86;26503;-72
2021/08/02 02:50:47;;;;;;;12.05;9.43;;;;;;;16.25;85.29;99167.92;1652685;86;25729;-71
2021/08/02 02:53:16;;;;;;;11.28;8.90;;;;;;;16.25;85.30;99174.75;1683720;85;26466;-70
2021/08/02 02:55:45;;;;;;;11.45;8.70;;;;;;;16.23;85.20;99176.30;1683867;85;25715;-71
2021/08/02 02:58:12;;;;;;;9.88;8.95;;;;;;;16.20;85.10;99178.40;1683738;85;27359;-71
2021/08/02 03:00:39;;;;;;;14.50;10.08;;;;;;;16.19;85.35;99176.26;1683510;85;25779;-71
2021/08/02 03:03:09;;;;;;;12.50;9.10;;;;;;;16.19;85.40;99180.91;1683658;85;25756;-72
2021/08/02 03:05:37;;;;;;;9.75;8.73;;;;;;;16.18;85.43;99179.36;1652759;86;25742;-71
2021/08/02 03:08:07;;;;;;;11.68;8.80;;;;;;;16.17;85.36;99191.42;1625988;87;25799;-71
2021/08/02 03:10:34;;;;;;;10.50;8.73;;;;;;;16.17;85.62;99188.69;1625018;87;26849;-71
2021/08/02 03:13:01;;;;;;;11.33;9.15;;;;;;;16.17;85.62;99191.42;1653502;86;25890;-71
2021/08/02 03:15:28;;;;;;;12.47;9.03;;;;;;;16.15;85.56;99191.78;1653529;86;25635;-71
2021/08/02 03:17:54;;;;;;;9.98;8.73;;;;;;;16.15;85.61;99197.83;1670894;85;25744;-71
2021/08/02 03:20:21;;;;;;;9.63;8.65;;;;;;;16.15;85.72;99200.55;1670974;85;25753;-71
2021/08/02 03:23:11;;;;;;;10.15;8.65;;;;;;;16.14;85.75;99208.52;1653533;86;27465;-71
2021/08/02 03:25:45;;;;;;;9.08;8.18;;;;;;;16.15;85.96;99216.34;1653526;86;25706;-71
2021/08/02 03:28:44;;;;;;;11.57;8.78;;;;;;;16.13;85.75;99213.79;1653723;86;25665;-71
2021/08/02 03:31:15;;;;;;;11.00;8.38;;;;;;;16.12;85.89;99225.26;1654626;86;32538;-73
2021/08/02 03:33:45;;;;;;;14.58;8.48;;;;;;;16.10;85.67;99230.30;1654125;86;25807;-70
2021/08/02 03:36:15;;;;;;;12.05;7.97;;;;;;;16.09;85.87;99226.03;1671170;85;27445;-71
2021/08/02 03:38:46;;;;;;;13.18;8.13;;;;;;;16.06;85.82;99231.63;1670952;85;25733;-71
2021/08/02 03:41:14;;;;;;;13.03;8.18;;;;;;;16.05;85.86;99227.32;1676053;85;26363;-71
2021/08/02 03:43:42;;;;;;;11.43;8.33;;;;;;;16.05;85.95;99234.14;1648898;85;25701;-71
2021/08/02 03:46:10;;;;;;;11.95;8.33;;;;;;;16.10;86.17;99237.72;1676092;84;25746;-71
2021/08/02 03:48:38;;;;;;;9.40;8.50;;;;;;;16.09;86.18;99234.21;1676247;84;27497;-72
2021/08/02 03:51:05;;;;;;;12.78;8.53;;;;;;;16.10;86.20;99240.44;1675884;85;25760;-71
2021/08/02 03:53:44;;;;;;;12.43;8.15;;;;;;;16.10;86.18;99241.22;1675990;85;25699;-71
2021/08/02 03:56:14;;;;;;;11.33;8.00;;;;;;;16.08;86.15;99240.81;1676144;84;25762;-71
2021/08/02 03:58:41;;;;;;;11.30;8.73;;;;;;;16.08;86.30;99241.39;1676014;85;25931;-71
2021/08/02 04:01:09;;;;;;;13.53;8.80;;;;;;;16.12;86.41;99240.84;1648976;85;28128;-72
2021/08/02 04:03:35;;;;;;;15.30;8.28;;;;;;;16.13;86.57;99246.52;1675992;84;26469;-74
2021/08/02 04:06:02;;;;;;;12.05;8.55;;;;;;;16.11;86.09;99244.16;1675934;85;25746;-72
2021/08/02 04:08:28;;;;;;;12.05;7.80;;;;;;;16.10;86.07;99252.72;1675971;84;25670;-72
2021/08/02 04:10:55;;;;;;;12.25;8.40;;;;;;;16.06;86.00;99254.04;1676027;85;25830;-72
2021/08/02 04:13:22;;;;;;;10.68;7.35;;;;;;;16.02;85.95;99263.55;1675922;85;27977;-72
2021/08/02 04:15:48;;;;;;;12.07;7.75;;;;;;;16.00;85.93;99264.47;1675957;84;25737;-72
2021/08/02 04:18:15;;;;;;;10.90;7.50;;;;;;;15.99;86.16;99267.01;1676108;84;26307;-72
2021/08/02 04:20:43;;;;;;;9.58;7.58;;;;;;;15.99;86.17;99267.01;1626783;85;25687;-72
2021/08/02 04:23:11;;;;;;;10.75;7.33;;;;;;;16.00;86.32;99269.14;1676144;85;25744;-72
2021/08/02 04:25:38;;;;;;;11.35;7.40;;;;;;;16.01;86.32;99269.37;1676081;84;27490;-72
2021/08/02 04:28:04;;;;;;;16.90;8.20;;;;;;;16.03;86.55;99269.77;1675863;85;25734;-72
2021/08/02 04:30:30;;;;;;;9.28;7.05;;;;;;;16.01;86.17;99271.51;1676106;85;25778;-73
2021/08/02 04:32:57;;;;;;;8.90;7.45;;;;;;;16.02;86.45;99273.09;1676000;85;25694;-73
2021/08/02 04:35:25;;;;;;;9.70;7.58;;;;;;;16.04;86.55;99274.09;1676029;85;26408;-73
2021/08/02 04:37:51;;;;;;;17.35;7.95;;;;;;;16.04;86.49;99280.31;1676059;84;27412;-72
2021/08/02 04:40:17;;;;;;;8.63;7.35;;;;;;;16.03;86.31;99282.83;1676008;84;25764;-72
2021/08/02 04:42:44;;;;;;;10.68;7.58;;;;;;;16.05;86.69;99298.23;1675951;84;25772;-72
2021/08/02 04:45:12;;;;;;;9.40;7.47;;;;;;;16.04;86.24;99303.50;1675999;85;25745;-72
2021/08/02 04:47:39;;;;;;;13.83;7.62;;;;;;;16.02;85.96;99302.28;1648927;85;26199;-71
2021/08/02 04:50:07;;;;;;;12.80;7.83;;;;;;;16.02;86.19;99302.28;1676043;84;27388;-72
2021/08/02 04:52:33;;;;;;;14.83;8.03;;;;;;;16.01;86.21;99304.82;1649090;85;25892;-70
2021/08/02 04:55:00;;;;;;;13.72;7.47;;;;;;;16.00;86.11;99308.69;1676024;85;25760;-71
2021/08/02 04:57:26;;;;;;;11.63;6.90;;;;;;;16.00;86.28;99309.47;1675971;85;25719;-71
2021/08/02 04:59:52;;;;;;;14.13;7.28;;;;;;;16.00;86.10;99313.56;1676087;84;25738;-71
2021/08/02 05:02:18;;;;;;;11.22;7.30;;;;;;;16.03;86.70;99315.55;1676044;84;27394;-71
2021/08/02 05:04:45;;;;;;;13.18;7.92;;;;;;;16.04;86.67;99313.63;1675955;85;26299;-71
2021/08/02 05:07:12;;;;;;;10.18;7.15;;;;;;;16.04;86.49;99320.45;1676104;85;26131;-71
2021/08/02 05:09:40;;;;;;;10.70;7.47;;;;;;;16.05;86.80;99315.19;1686854;84;25731;-71
2021/08/02 05:12:08;;;;;;;9.05;6.72;;;;;;;16.02;86.26;99314.00;1716016;83;25748;-70
2021/08/02 05:14:34;;;;;;;11.30;7.50;;;;;;;16.07;87.07;99321.05;1725940;83;27325;-71
2021/08/02 05:17:03;;;;;;;10.60;6.72;;;;;;;16.12;87.42;99321.31;1715778;83;25732;-71
2021/08/02 05:19:30;;;;;;;8.55;7.55;;;;;;;16.10;87.05;99317.59;1716094;83;25724;-72
2021/08/02 05:21:56;;;;;;;12.60;7.95;;;;;;;16.08;86.69;99330.05;1726250;83;25782;-71
2021/08/02 05:24:22;;;;;;;12.55;9.05;;;;;;;16.10;87.11;99340.00;1703705;84;25312;-71
2021/08/02 05:26:49;;;;;;;15.28;10.53;;;;;;;16.12;87.10;99335.73;1654685;86;27451;-71
2021/08/02 05:29:16;;;;;;;17.82;11.03;;;;;;;16.12;87.03;99333.00;1708538;83;25697;-71
2021/08/02 05:31:42;;;;;;;12.50;10.98;;;;;;;16.14;87.20;99326.62;1708475;83;25677;-71
2021/08/02 05:34:11;;;;;;;12.45;11.18;;;;;;;16.19;87.55;99325.50;1683735;85;26305;-71
2021/08/02 05:36:39;;;;;;;15.67;12.70;;;;;;;16.29;88.27;99330.89;1684092;85;25688;-71
2021/08/02 05:39:06;;;;;;;18.40;14.45;;;;;;;16.39;88.91;99335.11;1683686;85;27470;-71
2021/08/02 05:41:32;;;;;;;21.80;16.17;;;;;;;16.42;88.27;99341.19;1683679;85;25793;-71
2021/08/02 05:43:58;;;;;;;18.60;15.05;;;;;;;16.43;87.69;99351.55;1683719;85;25672;-72
2021/08/02 05:46:25;;;;;;;20.70;15.48;;;;;;;16.48;88.57;99351.22;1708581;83;25656;-71
2021/08/02 05:48:52;;;;;;;22.42;18.10;;;;;;;16.52;88.13;99349.90;1661389;85;25770;-71
2021/08/02 05:51:19;;;;;;;34.10;30.60;;;;;;;16.59;88.21;99354.06;1708626;83;27406;-71
2021/08/02 05:53:45;;;;;;;27.77;18.80;;;;;;;16.63;88.32;99352.16;1708480;83;25796;-71
2021/08/02 05:56:12;;;;;;;28.17;21.20;;;;;;;16.68;88.15;99346.36;1708596;83;25648;-71
2021/08/02 05:58:40;;;;;;;30.88;23.60;;;;;;;16.77;88.51;99348.23;1683785;85;25712;-71
2021/08/02 06:01:06;;;;;;;34.08;24.60;;;;;;;16.83;88.24;99350.04;1683719;85;25902;-72
2021/08/02 06:03:32;;;;;;;34.43;23.85;;;;;;;16.87;88.00;99355.56;1683807;85;27319;-72
2021/08/02 06:05:59;;;;;;;38.45;25.27;;;;;;;16.89;87.63;99359.51;1708399;83;25788;-68
2021/08/02 06:08:25;;;;;;;36.95;25.45;;;;;;;16.92;88.02;99365.56;1682877;84;25634;-71
2021/08/02 06:10:51;;;;;;;32.03;24.05;;;;;;;16.97;87.88;99367.98;1653809;86;25895;-71
2021/08/02 06:13:18;;;;;;;45.48;37.38;;;;;;;16.99;87.78;99373.05;1671060;85;25783;-71
2021/08/02 06:15:46;;;;;;;46.70;31.70;;;;;;;16.98;87.27;99378.33;1670932;85;27411;-72
2021/08/02 06:18:13;;;;;;;46.55;32.17;;;;;;;17.02;87.69;99388.70;1670988;85;25808;-71
2021/08/02 06:20:39;;;;;;;47.60;32.15;;;;;;;17.02;87.71;99391.43;1671052;85;25655;-71
2021/08/02 06:23:06;;;;;;;69.35;62.65;;;;;;;16.99;86.97;99391.61;1670932;85;26732;-72
2021/08/02 06:25:32;;;;;;;46.23;32.70;;;;;;;16.95;86.84;99394.88;1671033;85;25872;-71
2021/08/02 06:27:59;;;;;;;41.45;31.52;;;;;;;16.95;87.17;99388.63;1670951;85;29403;-72
2021/08/02 06:30:25;;;;;;;42.55;33.40;;;;;;;16.95;86.58;99393.50;1671052;85;26328;-72
2021/08/02 06:32:51;;;;;;;39.35;30.30;;;;;;;16.94;86.95;99391.95;1651379;85;26006;-71
2021/08/02 06:35:18;;;;;;;43.83;34.83;;;;;;;16.92;87.13;99397.56;1670904;85;25776;-71
2021/08/02 06:37:45;;;;;;;38.55;30.48;;;;;;;16.95;87.16;99398.19;1671103;85;25709;-71
2021/08/02 06:40:14;;;;;;;47.53;31.02;;;;;;;17.00;87.22;99397.85;1671026;85;27316;-71
2021/08/02 06:42:41;;;;;;;41.83;28.50;;;;;;;16.98;87.62;99395.49;1671038;85;25777;-73
2021/08/02 06:45:10;;;;;;;36.77;27.07;;;;;;;16.99;87.42;99398.44;1671017;85;25347;-72
2021/08/02 06:47:38;;;;;;;94.25;86.82;;;;;;;17.01;87.00;99398.63;1652004;85;25735;-72
2021/08/02 06:50:06;;;;;;;67.00;60.73;;;;;;;16.96;86.83;99395.09;1671056;85;25653;-72
2021/08/02 06:52:33;;;;;;;33.80;24.63;;;;;;;17.01;86.50;99400.80;1651570;85;27892;-73
2021/08/02 06:55:00;;;;;;;29.48;24.75;;;;;;;17.04;87.10;99406.08;1670915;85;25772;-73
2021/08/02 06:57:26;;;;;;;31.17;23.80;;;;;;;17.09;87.25;99405.16;1670940;85;25688;-72
2021/08/02 06:59:56;;;;;;;33.78;23.67;;;;;;;17.11;87.14;99408.88;1651373;85;25700;-73
2021/08/02 07:02:23;;;;;;;33.35;24.07;;;;;;;17.13;87.33;99416.15;1670967;85;25654;-72
2021/08/02 07:04:50;;;;;;;31.77;24.23;;;;;;;17.17;87.88;99413.64;1671021;85;28033;-73
2021/08/02 07:07:16;;;;;;;31.02;25.72;;;;;;;17.28;88.74;99419.23;1670930;85;25797;-73
2021/08/02 07:09:44;;;;;;;31.10;24.43;;;;;;;17.33;88.05;99418.89;1671094;85;25813;-73
2021/08/02 07:12:11;;;;;;;32.45;26.68;;;;;;;17.32;87.55;99424.14;1673435;84;26436;-73
2021/08/02 07:14:38;;;;;;;36.23;27.22;;;;;;;17.34;87.47;99428.64;1672722;85;25709;-72
2021/08/02 07:17:04;;;;;;;32.28;25.48;;;;;;;17.38;87.80;99423.80;1651645;85;27420;-73
2021/08/02 07:19:31;;;;;;;32.90;23.92;;;;;;;17.39;87.42;99430.84;1651194;85;25771;-74
2021/08/02 07:21:57;;;;;;;37.60;32.20;;;;;;;17.39;87.14;99435.73;1671058;85;26293;-73
2021/08/02 07:24:24;;;;;;;32.25;26.80;;;;;;;17.39;87.23;99436.31;1671146;85;26096;-73
2021/08/02 07:26:50;;;;;;;34.88;28.05;;;;;;;17.42;87.64;99439.08;1671697;85;25783;-72
2021/08/02 07:29:17;;;;;;;32.78;25.88;;;;;;;17.45;87.28;99438.89;1671039;85;27437;-72
2021/08/02 07:31:43;;;;;;;38.55;30.20;;;;;;;17.46;87.68;99446.72;1670895;85;25824;-73
2021/08/02 07:34:10;;;;;;;35.73;29.87;;;;;;;17.49;88.05;99448.71;1671048;85;25764;-71
2021/08/02 07:36:36;;;;;;;37.35;27.32;;;;;;;17.54;88.18;99453.84;1671072;85;25765;-72
2021/08/02 07:39:03;;;;;;;31.82;26.05;;;;;;;17.51;87.16;99451.07;1671057;85;25740;-72
2021/08/02 07:41:30;;;;;;;34.15;26.35;;;;;;;17.51;87.69;99450.48;1671147;85;28004;-73
2021/08/02 07:43:57;;;;;;;36.95;25.77;;;;;;;17.51;86.97;99455.95;1673088;85;25833;-73
2021/08/02 07:46:23;;;;;;;32.70;26.00;;;;;;;17.54;87.32;99462.03;1672058;85;25860;-73
2021/08/02 07:48:52;;;;;;;31.62;24.20;;;;;;;17.60;87.73;99469.30;1670940;85;25758;-73
2021/08/02 07:51:20;;;;;;;26.93;23.32;;;;;;;17.66;87.52;99471.91;1671059;85;25678;-74
2021/08/02 07:53:47;;;;;;;25.57;22.87;;;;;;;17.65;87.05;99478.53;1671006;85;27494;-73
2021/08/02 07:56:14;;;;;;;30.60;22.65;;;;;;;17.67;86.58;99479.53;1670897;85;26387;-74
2021/08/02 07:58:40;;;;;;;28.27;23.38;;;;;;;17.65;86.62;99479.90;1671026;85;25746;-73
2021/08/02 08:01:08;;;;;;;25.12;22.25;;;;;;;17.66;86.56;99484.81;1670804;85;25666;-75
2021/08/02 08:03:35;;;;;;;25.20;20.70;;;;;;;17.67;86.52;99486.36;1670978;85;25757;-74
2021/08/02 08:06:01;;;;;;;25.80;21.62;;;;;;;17.68;87.03;99488.72;1671003;85;27334;-74
2021/08/02 08:08:27;;;;;;;24.92;21.23;;;;;;;17.68;86.56;99492.05;1670889;85;25764;-74
2021/08/02 08:10:54;;;;;;;22.73;20.25;;;;;;;17.72;87.27;99486.02;1671012;85;25669;-74
2021/08/02 08:13:20;;;;;;;30.45;19.70;;;;;;;17.76;87.46;99491.52;1671091;85;26220;-73
2021/08/02 08:15:46;;;;;;;25.60;21.68;;;;;;;17.77;87.06;99491.73;1670968;85;25669;-74
2021/08/02 08:18:13;;;;;;;24.15;19.42;;;;;;;17.80;86.98;99484.15;1651401;85;27117;-75
2021/08/02 08:20:39;;;;;;;25.25;19.60;;;;;;;17.83;87.33;99486.91;1670913;85;25617;-75
2021/08/02 08:23:06;;;;;;;23.12;18.52;;;;;;;17.87;86.99;99490.48;1670872;85;25714;-75
2021/08/02 08:25:32;;;;;;;23.60;18.90;;;;;;;17.91;87.54;99491.88;1670980;85;25737;-75
2021/08/02 08:27:59;;;;;;;22.75;17.90;;;;;;;17.96;87.33;99488.02;1671047;85;25693;-75
2021/08/02 08:30:25;;;;;;;26.35;23.62;;;;;;;18.02;86.87;99489.25;1670954;85;27377;-73
2021/08/02 08:32:52;;;;;;;20.70;18.45;;;;;;;18.13;87.73;99496.94;1670830;85;25755;-74
2021/08/02 08:35:18;;;;;;;23.70;18.48;;;;;;;18.19;86.33;99494.06;1645070;85;25926;-74
2021/08/02 08:37:45;;;;;;;25.27;19.15;;;;;;;18.25;86.94;99495.30;1670906;85;25746;-75
2021/08/02 08:40:12;;;;;;;18.92;16.10;;;;;;;18.37;86.90;99498.87;1671070;85;25713;-74
2021/08/02 08:42:42;;;;;;;49.55;45.65;;;;;;;18.56;86.44;99499.99;1670902;85;28436;-75
2021/08/02 08:45:11;;;;;;;18.17;15.65;;;;;;;18.73;87.56;99499.89;1670844;85;25653;-74
2021/08/02 08:47:37;;;;;;;20.70;15.95;;;;;;;19.00;86.41;99503.19;1671030;85;25672;-75
2021/08/02 08:50:08;;;;;;;20.30;14.13;;;;;;;19.20;85.85;99503.63;1670862;85;26247;-74
2021/08/02 08:52:37;;;;;;;19.55;16.75;;;;;;;19.44;85.00;99508.20;1643587;87;25760;-75
2021/08/02 08:55:11;;;;;;;18.67;14.70;;;;;;;19.68;85.13;99514.94;1653746;86;27852;-73
2021/08/02 08:57:37;;;;;;;18.67;13.43;;;;;;;19.84;82.95;99512.44;1653724;86;25774;-74
2021/08/02 09:00:09;;;;;;;15.28;13.22;;;;;;;19.83;81.20;99513.59;1655996;86;25315;-74
2021/08/02 09:02:37;;;;;;;14.65;13.15;;;;;;;19.81;80.86;99520.08;1672714;85;25785;-73
2021/08/02 09:05:04;;;;;;;14.00;12.50;;;;;;;19.78;80.09;99516.94;1671156;85;25732;-73
2021/08/02 09:07:38;;;;;;;14.90;12.33;;;;;;;19.75;80.18;99523.77;1671141;85;27836;-74
2021/08/02 09:10:15;;;;;;;13.40;12.10;;;;;;;19.71;79.02;99518.25;1671045;85;25697;-74
2021/08/02 09:13:01;;;;;;;15.53;12.25;;;;;;;19.69;79.02;99531.58;1671114;85;25673;-74
2021/08/02 09:15:42;;;;;;;15.90;12.03;;;;;;;19.72;78.79;99534.92;1660544;85;25831;-73
2021/08/02 09:18:17;;;;;;;12.47;10.85;;;;;;;19.73;78.40;99528.84;1671171;85;25787;-74
2021/08/02 09:20:43;;;;;;;13.78;12.07;;;;;;;19.73;77.83;99531.02;1671082;85;27463;-73
2021/08/02 09:23:15;;;;;;;13.78;12.37;;;;;;;19.77;77.90;99535.16;1671105;85;25739;-73
2021/08/02 09:25:54;;;;;;;12.58;10.40;;;;;;;19.89;78.57;99534.78;1671064;85;25991;-73
2021/08/02 09:28:23;;;;;;;14.83;10.07;;;;;;;20.13;78.48;99540.08;1671092;85;25762;-73
2021/08/02 09:31:06;;;;;;;12.03;10.13;;;;;;;20.36;78.63;99540.27;1651507;85;25731;-74
2021/08/02 09:33:47;;;;;;;14.03;11.50;;;;;;;20.49;77.19;99546.15;1670916;85;27352;-73
2021/08/02 09:36:16;;;;;;;11.20;10.10;;;;;;;20.53;76.58;99549.09;1671065;85;25816;-73
2021/08/02 09:38:43;;;;;;;11.08;9.90;;;;;;;20.63;76.19;99549.48;1671115;85;25717;-71
2021/08/02 09:41:20;;;;;;;14.68;10.38;;;;;;;20.74;76.06;99545.34;1671141;85;25761;-73
2021/08/02 09:43:51;;;;;;;10.80;9.60;;;;;;;20.87;76.01;99547.30;1672116;85;25362;-72
2021/08/02 09:46:18;;;;;;;10.38;9.33;;;;;;;21.04;75.37;99551.73;1671688;85;27378;-73
2021/08/02 09:48:47;;;;;;;10.23;9.00;;;;;;;21.07;74.01;99557.22;1671031;85;25744;-72
2021/08/02 09:51:17;;;;;;;10.28;8.50;;;;;;;21.03;73.52;99554.31;1671204;85;25671;-72
2021/08/02 09:53:50;;;;;;;9.38;8.53;;;;;;;21.06;73.87;99554.30;1653777;86;25684;-72
2021/08/02 09:56:23;;;;;;;9.40;8.28;;;;;;;21.06;73.00;99557.05;1653824;86;25694;-72
2021/08/02 09:58:51;;;;;;;10.53;8.53;;;;;;;20.99;72.29;99565.30;1653809;86;27336;-72
2021/08/02 10:01:20;;;;;;;11.78;9.88;;;;;;;20.97;72.21;99569.03;1672105;85;25803;-72
2021/08/02 10:03:47;;;;;;;10.75;8.68;;;;;;;20.94;72.00;99578.67;1672542;85;25290;-72
2021/08/02 10:06:15;;;;;;;11.22;7.70;;;;;;;20.96;72.13;99569.43;1653746;86;25770;-72
2021/08/02 10:08:43;;;;;;;9.93;8.18;;;;;;;20.98;71.05;99568.47;1653788;86;25845;-72
2021/08/02 10:11:10;;;;;;;8.70;7.90;;;;;;;20.94;70.71;99578.67;1692070;83;27422;-70
2021/08/02 10:13:43;;;;;;;8.68;7.30;;;;;;;20.94;71.74;99582.19;1715769;83;25705;-72
2021/08/02 10:16:14;;;;;;;9.88;7.30;;;;;;;20.98;71.04;99588.48;1715852;83;25770;-71
2021/08/02 10:18:51;;;;;;;7.20;6.50;;;;;;;21.04;71.22;99583.35;1721469;83;26215;-71
2021/08/02 10:21:19;;;;;;;8.95;6.47;;;;;;;21.13;69.96;99578.80;1658119;86;25743;-71
2021/08/02 10:23:47;;;;;;;8.18;6.28;;;;;;;21.24;70.28;99580.94;1663795;84;27351;-71
2021/08/02 10:26:31;;;;;;;8.90;6.62;;;;;;;21.37;70.56;99588.17;1693213;84;25741;-70
2021/08/02 10:29:03;;;;;;;10.58;6.90;;;;;;;21.55;70.06;99583.97;1715326;83;25831;-71
2021/08/02 10:31:44;;;;;;;9.80;6.67;;;;;;;21.63;68.78;99591.79;1656614;86;26018;-71
2021/08/02 10:34:21;;;;;;;8.55;6.85;;;;;;;21.66;68.12;99600.42;1728246;83;25620;-71
2021/08/02 10:37:04;;;;;;;9.03;6.62;;;;;;;21.64;68.02;99593.97;1705409;83;27320;-71
2021/08/02 10:39:33;;;;;;;9.08;6.67;;;;;;;21.97;68.83;99591.20;1728075;83;26265;-71
2021/08/02 10:42:12;;;;;;;;;;;;;;;22.38;67.94;99585.02;1688041;84;25970;-71
2021/08/02 10:44:39;;;;;;;7.83;5.25;;;;;;;22.77;68.24;99589.22;1713158;83;26208;-70
2021/08/02 10:47:11;;;;;;;6.30;5.72;;;;;;;22.98;67.06;99585.44;1713694;83;25696;-73
2021/08/02 10:49:50;;;;;;;10.63;7.85;;;;;;;22.97;65.31;99598.45;1715548;83;27306;-71
2021/08/02 10:52:30;;;;;;;6.12;5.30;;;;;;;22.84;63.48;99589.91;1658213;86;25760;-70
2021/08/02 10:54:58;;;;;;;4.95;4.45;;;;;;;22.84;63.54;99596.80;1685747;85;26545;-70
2021/08/02 10:57:24;;;;;;;5.67;5.08;;;;;;;22.71;62.74;99602.06;1685813;85;26738;-70
2021/08/02 10:59:51;;;;;;;6.15;4.40;;;;;;;22.60;62.80;99593.10;1713049;83;25633;-70
2021/08/02 11:02:18;;;;;;;5.40;4.90;;;;;;;22.49;62.33;99593.78;1656583;86;27358;-70
2021/08/02 11:04:57;;;;;;;6.30;4.72;;;;;;;22.45;63.46;99597.17;1728190;83;25948;-70
2021/08/02 11:07:22;;;;;;;5.00;4.60;;;;;;;22.68;64.06;99596.56;1727219;83;25728;-70
2021/08/02 11:09:49;;;;;;;5.87;4.37;;;;;;;23.06;64.01;99600.75;1728090;82;25725;-69
2021/08/02 11:12:16;;;;;;;5.50;4.90;;;;;;;23.26;62.85;99593.42;1703202;84;25725;-69
2021/08/02 11:14:54;;;;;;;5.33;4.50;;;;;;;23.40;62.62;99591.69;1703107;83;27365;-69
2021/08/02 11:17:23;;;;;;;5.08;4.60;;;;;;;23.56;62.00;99595.22;1703011;84;26007;-69
2021/08/02 11:20:04;;;;;;;;;;;;;;;23.57;61.03;99608.61;1705746;83;25658;-69
2021/08/02 11:22:28;;;;;;;4.83;4.30;;;;;;;23.47;60.29;99603.41;1702761;84;26433;-69
2021/08/02 11:24:59;;;;;;;4.78;4.20;;;;;;;23.53;61.42;99602.94;1703146;84;25357;-69
2021/08/02 11:27:27;;;;;;;4.45;3.98;;;;;;;23.66;61.26;99605.34;1703123;84;28142;-69
2021/08/02 11:29:55;;;;;;;5.35;4.20;;;;;;;23.82;59.55;99611.65;1682689;84;26357;-69
2021/08/02 11:32:23;;;;;;;4.50;4.10;;;;;;;24.04;60.30;99611.55;1703287;83;25720;-68
2021/08/02 11:34:57;;;;;;;4.95;4.47;;;;;;;24.11;59.02;99614.80;1703080;83;26327;-68
2021/08/02 11:37:27;;;;;;;6.80;4.28;;;;;;;23.97;57.18;99617.76;1703222;83;25781;-68